sensor_id;sensor_type;location;lat;lon;timestamp;temperature;humidity
63371;DHT22;49504;48.336;14.472;2023-06-14T00:02:17;25.90;50.90
63371;DHT22;49504;48.336;14.472;2023-06-14T00:05:40;25.90;50.80
63371;DHT22;49504;48.336;14.472;2023-06-14T00:09:01;25.90;50.90
63371;DHT22;49504;48.336;14.472;2023-06-14T00:12:22;25.90;50.90
63371;DHT22;49504;48.336;14.472;2023-06-14T00:15:43;25.90;51.20
63371;DHT22;49504;48.336;14.472;2023-06-14T00:19:04;25.90;51.00
63371;DHT22;49504;48.336;14.472;2023-06-14T00:22:27;25.90;51.00
63371;DHT22;49504;48.336;14.472;2023-06-14T00:25:48;26.00;51.10
63371;DHT22;49504;48.336;14.472;2023-06-14T00:29:09;25.90;51.00
63371;DHT22;49504;48.336;14.472;2023-06-14T00:32:31;26.00;51.10
63371;DHT22;49504;48.336;14.472;2023-06-14T00:35:52;25.90;50.90
63371;DHT22;49504;48.336;14.472;2023-06-14T00:39:16;25.90;51.00
63371;DHT22;49504;48.336;14.472;2023-06-14T00:42:37;25.90;51.00
63371;DHT22;49504;48.336;14.472;2023-06-14T00:45:58;26.00;51.10
63371;DHT22;49504;48.336;14.472;2023-06-14T00:49:19;26.00;51.10
63371;DHT22;49504;48.336;14.472;2023-06-14T00:52:41;26.00;51.10
63371;DHT22;49504;48.336;14.472;2023-06-14T00:56:03;25.90;50.90
63371;DHT22;49504;48.336;14.472;2023-06-14T00:59:25;26.00;51.00
63371;DHT22;49504;48.336;14.472;2023-06-14T01:05:19;25.90;50.30
63371;DHT22;49504;48.336;14.472;2023-06-14T01:08:49;25.90;51.00
63371;DHT22;49504;48.336;14.472;2023-06-14T01:12:17;25.90;50.90
63371;DHT22;49504;48.336;14.472;2023-06-14T01:15:43;25.90;51.00
63371;DHT22;49504;48.336;14.472;2023-06-14T01:19:05;25.90;51.00
63371;DHT22;49504;48.336;14.472;2023-06-14T01:22:30;25.90;51.10
63371;DHT22;49504;48.336;14.472;2023-06-14T01:25:52;25.90;51.10
63371;DHT22;49504;48.336;14.472;2023-06-14T01:29:15;25.90;51.10
63371;DHT22;49504;48.336;14.472;2023-06-14T01:32:36;25.90;51.10
63371;DHT22;49504;48.336;14.472;2023-06-14T01:36:00;26.00;51.20
63371;DHT22;49504;48.336;14.472;2023-06-14T01:39:24;25.90;51.10
63371;DHT22;49504;48.336;14.472;2023-06-14T01:45:19;25.90;50.40
63371;DHT22;49504;48.336;14.472;2023-06-14T01:48:41;25.90;51.20
63371;DHT22;49504;48.336;14.472;2023-06-14T01:52:03;25.90;51.20
63371;DHT22;49504;48.336;14.472;2023-06-14T01:55:25;25.90;51.20
63371;DHT22;49504;48.336;14.472;2023-06-14T01:58:46;25.90;51.00
63371;DHT22;49504;48.336;14.472;2023-06-14T02:02:09;25.90;51.20
63371;DHT22;49504;48.336;14.472;2023-06-14T02:05:30;25.90;51.20
63371;DHT22;49504;48.336;14.472;2023-06-14T02:08:51;25.90;50.90
63371;DHT22;49504;48.336;14.472;2023-06-14T02:12:37;25.90;50.10
63371;DHT22;49504;48.336;14.472;2023-06-14T02:15:59;25.90;50.60
63371;DHT22;49504;48.336;14.472;2023-06-14T02:19:22;25.90;50.80
63371;DHT22;49504;48.336;14.472;2023-06-14T02:22:44;25.90;50.90
63371;DHT22;49504;48.336;14.472;2023-06-14T02:26:05;25.90;50.80
63371;DHT22;49504;48.336;14.472;2023-06-14T02:29:30;25.90;51.00
63371;DHT22;49504;48.336;14.472;2023-06-14T02:32:51;25.90;51.20
63371;DHT22;49504;48.336;14.472;2023-06-14T02:36:12;25.90;51.30
63371;DHT22;49504;48.336;14.472;2023-06-14T02:39:33;25.90;51.30
63371;DHT22;49504;48.336;14.472;2023-06-14T02:42:54;25.90;52.00
63371;DHT22;49504;48.336;14.472;2023-06-14T02:46:17;25.90;51.30
63371;DHT22;49504;48.336;14.472;2023-06-14T02:49:38;25.90;51.40
63371;DHT22;49504;48.336;14.472;2023-06-14T02:52:59;25.90;51.40
63371;DHT22;49504;48.336;14.472;2023-06-14T02:56:20;25.90;51.40
63371;DHT22;49504;48.336;14.472;2023-06-14T02:59:42;25.90;51.40
63371;DHT22;49504;48.336;14.472;2023-06-14T03:03:05;25.90;51.40
63371;DHT22;49504;48.336;14.472;2023-06-14T03:06:26;25.90;51.40
63371;DHT22;49504;48.336;14.472;2023-06-14T03:09:49;25.90;51.40
63371;DHT22;49504;48.336;14.472;2023-06-14T03:13:10;25.80;51.40
63371;DHT22;49504;48.336;14.472;2023-06-14T03:16:32;25.90;51.50
63371;DHT22;49504;48.336;14.472;2023-06-14T03:19:56;25.80;51.40
63371;DHT22;49504;48.336;14.472;2023-06-14T03:23:17;25.80;51.40
63371;DHT22;49504;48.336;14.472;2023-06-14T03:26:39;25.90;51.50
63371;DHT22;49504;48.336;14.472;2023-06-14T03:30:00;25.80;51.20
63371;DHT22;49504;48.336;14.472;2023-06-14T03:33:22;25.80;51.30
63371;DHT22;49504;48.336;14.472;2023-06-14T03:36:45;25.80;51.40
63371;DHT22;49504;48.336;14.472;2023-06-14T03:40:07;25.80;51.30
63371;DHT22;49504;48.336;14.472;2023-06-14T03:43:34;25.80;51.20
63371;DHT22;49504;48.336;14.472;2023-06-14T03:46:56;25.80;50.80
63371;DHT22;49504;48.336;14.472;2023-06-14T03:50:19;25.80;50.30
63371;DHT22;49504;48.336;14.472;2023-06-14T03:53:41;25.80;50.50
63371;DHT22;49504;48.336;14.472;2023-06-14T03:57:03;25.80;50.10
63371;DHT22;49504;48.336;14.472;2023-06-14T04:00:25;25.80;50.10
63371;DHT22;49504;48.336;14.472;2023-06-14T04:03:46;25.80;50.10
63371;DHT22;49504;48.336;14.472;2023-06-14T04:07:07;25.80;50.10
63371;DHT22;49504;48.336;14.472;2023-06-14T04:10:30;25.80;50.00
63371;DHT22;49504;48.336;14.472;2023-06-14T04:13:51;25.80;49.90
63371;DHT22;49504;48.336;14.472;2023-06-14T04:17:13;25.80;49.90
63371;DHT22;49504;48.336;14.472;2023-06-14T04:20:38;25.80;49.80
63371;DHT22;49504;48.336;14.472;2023-06-14T04:23:59;25.70;50.00
63371;DHT22;49504;48.336;14.472;2023-06-14T04:27:25;25.70;49.50
63371;DHT22;49504;48.336;14.472;2023-06-14T04:30:46;25.70;49.40
63371;DHT22;49504;48.336;14.472;2023-06-14T04:34:09;25.70;49.30
63371;DHT22;49504;48.336;14.472;2023-06-14T04:37:31;25.70;49.20
63371;DHT22;49504;48.336;14.472;2023-06-14T04:40:52;25.70;49.20
63371;DHT22;49504;48.336;14.472;2023-06-14T04:44:16;25.70;49.10
63371;DHT22;49504;48.336;14.472;2023-06-14T04:47:39;25.70;49.10
63371;DHT22;49504;48.336;14.472;2023-06-14T04:51:01;25.70;49.50
63371;DHT22;49504;48.336;14.472;2023-06-14T04:54:23;25.70;49.00
63371;DHT22;49504;48.336;14.472;2023-06-14T04:57:44;25.70;48.90
63371;DHT22;49504;48.336;14.472;2023-06-14T05:01:07;25.70;48.80
63371;DHT22;49504;48.336;14.472;2023-06-14T05:04:28;25.70;48.80
63371;DHT22;49504;48.336;14.472;2023-06-14T05:07:49;25.70;48.80
63371;DHT22;49504;48.336;14.472;2023-06-14T05:11:11;25.60;48.90
63371;DHT22;49504;48.336;14.472;2023-06-14T05:14:33;25.70;49.10
63371;DHT22;49504;48.336;14.472;2023-06-14T05:17:56;25.70;49.20
63371;DHT22;49504;48.336;14.472;2023-06-14T05:21:17;25.70;49.30
63371;DHT22;49504;48.336;14.472;2023-06-14T05:24:38;25.70;49.40
63371;DHT22;49504;48.336;14.472;2023-06-14T05:27:59;25.70;49.40
63371;DHT22;49504;48.336;14.472;2023-06-14T05:31:21;25.70;49.50
63371;DHT22;49504;48.336;14.472;2023-06-14T05:34:43;25.70;49.60
63371;DHT22;49504;48.336;14.472;2023-06-14T05:38:04;25.60;49.50
63371;DHT22;49504;48.336;14.472;2023-06-14T05:41:25;25.70;49.70
63371;DHT22;49504;48.336;14.472;2023-06-14T05:44:47;25.60;49.70
63371;DHT22;49504;48.336;14.472;2023-06-14T05:48:08;25.70;49.80
63371;DHT22;49504;48.336;14.472;2023-06-14T05:51:30;25.70;49.90
63371;DHT22;49504;48.336;14.472;2023-06-14T05:54:51;25.70;49.90
63371;DHT22;49504;48.336;14.472;2023-06-14T05:58:13;25.60;49.90
63371;DHT22;49504;48.336;14.472;2023-06-14T06:01:34;25.60;50.00
63371;DHT22;49504;48.336;14.472;2023-06-14T06:04:55;25.70;50.10
63371;DHT22;49504;48.336;14.472;2023-06-14T06:08:17;25.70;50.10
63371;DHT22;49504;48.336;14.472;2023-06-14T06:11:38;25.60;50.10
63371;DHT22;49504;48.336;14.472;2023-06-14T06:15:00;25.60;50.10
63371;DHT22;49504;48.336;14.472;2023-06-14T06:18:21;25.60;50.80
63371;DHT22;49504;48.336;14.472;2023-06-14T06:21:42;25.60;50.20
63371;DHT22;49504;48.336;14.472;2023-06-14T06:25:06;25.70;50.30
63371;DHT22;49504;48.336;14.472;2023-06-14T06:28:28;25.60;50.30
63371;DHT22;49504;48.336;14.472;2023-06-14T06:31:49;25.60;50.30
63371;DHT22;49504;48.336;14.472;2023-06-14T06:35:10;25.70;51.10
63371;DHT22;49504;48.336;14.472;2023-06-14T06:38:31;25.60;50.40
63371;DHT22;49504;48.336;14.472;2023-06-14T06:41:54;25.70;50.50
63371;DHT22;49504;48.336;14.472;2023-06-14T06:45:26;25.60;50.50
63371;DHT22;49504;48.336;14.472;2023-06-14T06:48:47;25.60;50.50
63371;DHT22;49504;48.336;14.472;2023-06-14T06:52:08;25.70;50.50
63371;DHT22;49504;48.336;14.472;2023-06-14T06:55:30;25.60;50.40
63371;DHT22;49504;48.336;14.472;2023-06-14T07:00:57;25.60;49.70
63371;DHT22;49504;48.336;14.472;2023-06-14T07:04:19;25.60;50.30
63371;DHT22;49504;48.336;14.472;2023-06-14T07:07:40;25.60;50.30
63371;DHT22;49504;48.336;14.472;2023-06-14T07:11:01;25.60;50.30
63371;DHT22;49504;48.336;14.472;2023-06-14T07:14:22;25.60;50.30
63371;DHT22;49504;48.336;14.472;2023-06-14T07:17:45;25.60;50.20
63371;DHT22;49504;48.336;14.472;2023-06-14T07:21:06;25.60;50.20
63371;DHT22;49504;48.336;14.472;2023-06-14T07:24:27;25.60;50.20
63371;DHT22;49504;48.336;14.472;2023-06-14T07:27:48;25.60;50.20
63371;DHT22;49504;48.336;14.472;2023-06-14T07:31:10;25.60;50.10
63371;DHT22;49504;48.336;14.472;2023-06-14T07:34:32;25.60;50.20
63371;DHT22;49504;48.336;14.472;2023-06-14T07:37:53;25.60;50.20
63371;DHT22;49504;48.336;14.472;2023-06-14T07:41:14;25.60;50.10
63371;DHT22;49504;48.336;14.472;2023-06-14T07:44:36;25.70;50.50
63371;DHT22;49504;48.336;14.472;2023-06-14T07:47:57;25.70;50.50
63371;DHT22;49504;48.336;14.472;2023-06-14T07:51:20;25.70;50.30
63371;DHT22;49504;48.336;14.472;2023-06-14T07:54:41;25.70;50.20
63371;DHT22;49504;48.336;14.472;2023-06-14T07:58:02;25.70;50.30
63371;DHT22;49504;48.336;14.472;2023-06-14T08:01:23;25.70;50.40
63371;DHT22;49504;48.336;14.472;2023-06-14T08:04:44;25.70;50.50
63371;DHT22;49504;48.336;14.472;2023-06-14T08:08:07;25.60;50.20
63371;DHT22;49504;48.336;14.472;2023-06-14T08:11:28;25.70;50.20
63371;DHT22;49504;48.336;14.472;2023-06-14T08:14:49;25.70;50.20
63371;DHT22;49504;48.336;14.472;2023-06-14T08:18:10;25.60;50.00
63371;DHT22;49504;48.336;14.472;2023-06-14T08:21:31;25.60;50.00
63371;DHT22;49504;48.336;14.472;2023-06-14T08:25:22;25.60;49.50
63371;DHT22;49504;48.336;14.472;2023-06-14T08:28:43;25.70;50.10
63371;DHT22;49504;48.336;14.472;2023-06-14T08:32:05;25.70;50.20
63371;DHT22;49504;48.336;14.472;2023-06-14T08:35:26;25.70;50.40
63371;DHT22;49504;48.336;14.472;2023-06-14T08:38:47;25.70;50.50
63371;DHT22;49504;48.336;14.472;2023-06-14T08:42:10;25.70;50.70
63371;DHT22;49504;48.336;14.472;2023-06-14T08:45:31;25.70;50.80
63371;DHT22;49504;48.336;14.472;2023-06-14T08:48:54;25.70;50.90
63371;DHT22;49504;48.336;14.472;2023-06-14T08:52:19;25.70;51.00
63371;DHT22;49504;48.336;14.472;2023-06-14T08:55:42;25.70;51.20
63371;DHT22;49504;48.336;14.472;2023-06-14T08:59:05;25.70;51.40
63371;DHT22;49504;48.336;14.472;2023-06-14T09:02:26;25.70;51.40
63371;DHT22;49504;48.336;14.472;2023-06-14T09:05:48;25.70;51.60
63371;DHT22;49504;48.336;14.472;2023-06-14T09:09:09;25.70;51.70
63371;DHT22;49504;48.336;14.472;2023-06-14T09:12:30;25.70;51.70
63371;DHT22;49504;48.336;14.472;2023-06-14T09:15:53;25.70;51.60
63371;DHT22;49504;48.336;14.472;2023-06-14T09:19:21;25.70;51.60
63371;DHT22;49504;48.336;14.472;2023-06-14T09:22:42;25.70;51.60
63371;DHT22;49504;48.336;14.472;2023-06-14T09:26:07;25.70;51.70
63371;DHT22;49504;48.336;14.472;2023-06-14T09:30:10;25.70;51.00
63371;DHT22;49504;48.336;14.472;2023-06-14T09:33:32;25.70;51.70
63371;DHT22;49504;48.336;14.472;2023-06-14T09:38:34;25.70;51.00
63371;DHT22;49504;48.336;14.472;2023-06-14T09:41:55;25.70;51.80
63371;DHT22;49504;48.336;14.472;2023-06-14T09:45:16;25.70;51.80
63371;DHT22;49504;48.336;14.472;2023-06-14T09:48:38;25.70;51.80
63371;DHT22;49504;48.336;14.472;2023-06-14T09:51:59;25.70;51.90
63371;DHT22;49504;48.336;14.472;2023-06-14T09:55:22;25.70;51.90
63371;DHT22;49504;48.336;14.472;2023-06-14T09:58:44;25.70;51.80
63371;DHT22;49504;48.336;14.472;2023-06-14T10:02:09;25.70;51.80
63371;DHT22;49504;48.336;14.472;2023-06-14T10:05:32;25.70;51.80
63371;DHT22;49504;48.336;14.472;2023-06-14T10:08:57;25.70;51.80
63371;DHT22;49504;48.336;14.472;2023-06-14T10:12:20;25.70;51.70
63371;DHT22;49504;48.336;14.472;2023-06-14T10:15:52;25.70;51.80
63371;DHT22;49504;48.336;14.472;2023-06-14T10:19:20;25.70;51.90
63371;DHT22;49504;48.336;14.472;2023-06-14T10:22:46;25.70;51.90
63371;DHT22;49504;48.336;14.472;2023-06-14T10:26:18;25.70;52.00
63371;DHT22;49504;48.336;14.472;2023-06-14T10:30:03;25.70;51.90
63371;DHT22;49504;48.336;14.472;2023-06-14T10:33:25;25.80;52.00
63371;DHT22;49504;48.336;14.472;2023-06-14T10:36:46;25.80;52.00
63371;DHT22;49504;48.336;14.472;2023-06-14T10:40:30;25.80;52.00
63371;DHT22;49504;48.336;14.472;2023-06-14T10:43:51;25.80;51.90
63371;DHT22;49504;48.336;14.472;2023-06-14T10:47:25;25.80;52.00
63371;DHT22;49504;48.336;14.472;2023-06-14T10:50:47;25.80;52.00
63371;DHT22;49504;48.336;14.472;2023-06-14T10:54:12;25.80;52.00
63371;DHT22;49504;48.336;14.472;2023-06-14T10:57:33;25.80;52.00
63371;DHT22;49504;48.336;14.472;2023-06-14T11:00:54;25.80;51.90
63371;DHT22;49504;48.336;14.472;2023-06-14T11:04:20;25.80;51.90
63371;DHT22;49504;48.336;14.472;2023-06-14T11:07:51;25.80;51.90
63371;DHT22;49504;48.336;14.472;2023-06-14T11:11:22;25.80;51.90
63371;DHT22;49504;48.336;14.472;2023-06-14T11:14:46;25.80;51.80
63371;DHT22;49504;48.336;14.472;2023-06-14T11:18:08;25.80;51.80
63371;DHT22;49504;48.336;14.472;2023-06-14T11:21:32;25.80;51.90
63371;DHT22;49504;48.336;14.472;2023-06-14T11:24:53;25.80;51.90
63371;DHT22;49504;48.336;14.472;2023-06-14T11:28:14;25.80;51.70
63371;DHT22;49504;48.336;14.472;2023-06-14T11:31:36;25.80;51.70
63371;DHT22;49504;48.336;14.472;2023-06-14T11:34:57;25.80;51.70
63371;DHT22;49504;48.336;14.472;2023-06-14T11:38:19;25.80;51.80
63371;DHT22;49504;48.336;14.472;2023-06-14T11:41:42;25.80;51.80
63371;DHT22;49504;48.336;14.472;2023-06-14T11:45:08;25.80;51.80
63371;DHT22;49504;48.336;14.472;2023-06-14T11:48:37;25.80;51.90
63371;DHT22;49504;48.336;14.472;2023-06-14T11:51:58;25.80;51.90
63371;DHT22;49504;48.336;14.472;2023-06-14T11:55:21;25.80;51.90
63371;DHT22;49504;48.336;14.472;2023-06-14T11:58:43;25.80;51.90
63371;DHT22;49504;48.336;14.472;2023-06-14T12:02:04;25.80;51.90
63371;DHT22;49504;48.336;14.472;2023-06-14T12:05:26;25.80;52.00
63371;DHT22;49504;48.336;14.472;2023-06-14T12:08:48;25.80;52.00
63371;DHT22;49504;48.336;14.472;2023-06-14T12:12:12;25.80;51.90
63371;DHT22;49504;48.336;14.472;2023-06-14T12:15:33;25.80;51.90
63371;DHT22;49504;48.336;14.472;2023-06-14T12:18:55;25.80;51.80
63371;DHT22;49504;48.336;14.472;2023-06-14T12:22:17;25.80;51.80
63371;DHT22;49504;48.336;14.472;2023-06-14T12:25:38;25.80;51.90
63371;DHT22;49504;48.336;14.472;2023-06-14T12:29:00;25.80;52.00
63371;DHT22;49504;48.336;14.472;2023-06-14T12:32:21;25.80;51.90
63371;DHT22;49504;48.336;14.472;2023-06-14T12:35:43;25.80;52.00
63371;DHT22;49504;48.336;14.472;2023-06-14T12:39:04;25.80;51.90
63371;DHT22;49504;48.336;14.472;2023-06-14T12:42:25;25.80;51.90
63371;DHT22;49504;48.336;14.472;2023-06-14T12:45:47;25.80;51.80
63371;DHT22;49504;48.336;14.472;2023-06-14T12:49:09;25.80;51.90
63371;DHT22;49504;48.336;14.472;2023-06-14T12:52:31;25.80;51.80
63371;DHT22;49504;48.336;14.472;2023-06-14T12:55:52;25.80;51.70
63371;DHT22;49504;48.336;14.472;2023-06-14T12:59:13;25.80;51.70
63371;DHT22;49504;48.336;14.472;2023-06-14T13:02:35;25.80;51.60
63371;DHT22;49504;48.336;14.472;2023-06-14T13:05:56;25.80;51.70
63371;DHT22;49504;48.336;14.472;2023-06-14T13:09:18;25.80;51.70
63371;DHT22;49504;48.336;14.472;2023-06-14T13:12:39;25.80;51.70
63371;DHT22;49504;48.336;14.472;2023-06-14T13:16:00;25.80;51.70
63371;DHT22;49504;48.336;14.472;2023-06-14T13:19:23;25.80;51.60
63371;DHT22;49504;48.336;14.472;2023-06-14T13:22:44;25.80;51.60
63371;DHT22;49504;48.336;14.472;2023-06-14T13:26:05;25.90;51.60
63371;DHT22;49504;48.336;14.472;2023-06-14T13:29:26;25.80;51.50
63371;DHT22;49504;48.336;14.472;2023-06-14T13:32:48;25.80;51.50
63371;DHT22;49504;48.336;14.472;2023-06-14T13:36:10;25.80;51.50
63371;DHT22;49504;48.336;14.472;2023-06-14T13:39:31;25.80;51.50
63371;DHT22;49504;48.336;14.472;2023-06-14T13:42:53;25.90;51.60
63371;DHT22;49504;48.336;14.472;2023-06-14T13:46:14;25.90;51.50
63371;DHT22;49504;48.336;14.472;2023-06-14T13:49:35;25.90;51.70
63371;DHT22;49504;48.336;14.472;2023-06-14T13:52:57;25.90;51.40
63371;DHT22;49504;48.336;14.472;2023-06-14T13:56:18;25.90;51.30
63371;DHT22;49504;48.336;14.472;2023-06-14T13:59:40;25.90;51.20
63371;DHT22;49504;48.336;14.472;2023-06-14T14:03:01;25.90;51.20
63371;DHT22;49504;48.336;14.472;2023-06-14T14:06:22;25.90;51.20
63371;DHT22;49504;48.336;14.472;2023-06-14T14:09:45;25.90;51.20
63371;DHT22;49504;48.336;14.472;2023-06-14T14:13:06;25.90;51.30
63371;DHT22;49504;48.336;14.472;2023-06-14T14:16:27;25.90;51.20
63371;DHT22;49504;48.336;14.472;2023-06-14T14:19:48;26.00;51.20
63371;DHT22;49504;48.336;14.472;2023-06-14T14:23:09;26.00;51.10
63371;DHT22;49504;48.336;14.472;2023-06-14T14:26:31;26.10;51.00
63371;DHT22;49504;48.336;14.472;2023-06-14T14:29:53;26.10;51.00
63371;DHT22;49504;48.336;14.472;2023-06-14T14:33:14;26.10;50.90
63371;DHT22;49504;48.336;14.472;2023-06-14T14:36:35;26.20;50.80
63371;DHT22;49504;48.336;14.472;2023-06-14T14:39:57;26.20;50.90
63371;DHT22;49504;48.336;14.472;2023-06-14T14:43:19;26.30;51.10
63371;DHT22;49504;48.336;14.472;2023-06-14T14:46:40;26.30;51.00
63371;DHT22;49504;48.336;14.472;2023-06-14T14:50:02;26.30;50.90
63371;DHT22;49504;48.336;14.472;2023-06-14T14:53:23;26.30;50.80
63371;DHT22;49504;48.336;14.472;2023-06-14T14:56:44;26.30;50.80
63371;DHT22;49504;48.336;14.472;2023-06-14T15:00:09;26.40;50.80
63371;DHT22;49504;48.336;14.472;2023-06-14T15:03:31;26.40;51.10
63371;DHT22;49504;48.336;14.472;2023-06-14T15:06:52;26.40;51.00
63371;DHT22;49504;48.336;14.472;2023-06-14T15:10:14;26.40;51.00
63371;DHT22;49504;48.336;14.472;2023-06-14T15:13:35;26.40;51.00
63371;DHT22;49504;48.336;14.472;2023-06-14T15:16:57;26.30;51.00
63371;DHT22;49504;48.336;14.472;2023-06-14T15:20:19;26.30;50.90
63371;DHT22;49504;48.336;14.472;2023-06-14T15:23:40;26.30;50.90
63371;DHT22;49504;48.336;14.472;2023-06-14T15:27:01;26.40;51.00
63371;DHT22;49504;48.336;14.472;2023-06-14T15:30:22;26.30;51.60
63371;DHT22;49504;48.336;14.472;2023-06-14T15:33:45;26.30;51.00
63371;DHT22;49504;48.336;14.472;2023-06-14T15:37:06;26.30;51.30
63371;DHT22;49504;48.336;14.472;2023-06-14T15:40:27;26.30;51.10
63371;DHT22;49504;48.336;14.472;2023-06-14T15:43:48;26.30;51.00
63371;DHT22;49504;48.336;14.472;2023-06-14T15:47:10;26.30;51.00
63371;DHT22;49504;48.336;14.472;2023-06-14T15:50:32;26.30;51.10
63371;DHT22;49504;48.336;14.472;2023-06-14T15:53:53;26.30;51.30
63371;DHT22;49504;48.336;14.472;2023-06-14T15:57:15;26.30;51.40
63371;DHT22;49504;48.336;14.472;2023-06-14T16:00:36;26.30;51.40
63371;DHT22;49504;48.336;14.472;2023-06-14T16:03:57;26.30;51.50
63371;DHT22;49504;48.336;14.472;2023-06-14T16:07:20;26.30;51.40
63371;DHT22;49504;48.336;14.472;2023-06-14T16:10:42;26.30;51.40
63371;DHT22;49504;48.336;14.472;2023-06-14T16:14:03;26.30;51.60
63371;DHT22;49504;48.336;14.472;2023-06-14T16:17:24;26.30;51.60
63371;DHT22;49504;48.336;14.472;2023-06-14T16:20:46;26.20;51.50
63371;DHT22;49504;48.336;14.472;2023-06-14T16:24:08;26.30;51.50
63371;DHT22;49504;48.336;14.472;2023-06-14T16:27:30;26.30;51.40
63371;DHT22;49504;48.336;14.472;2023-06-14T16:30:51;26.20;51.40
63371;DHT22;49504;48.336;14.472;2023-06-14T16:34:12;26.20;51.30
63371;DHT22;49504;48.336;14.472;2023-06-14T16:37:33;26.20;51.40
63371;DHT22;49504;48.336;14.472;2023-06-14T16:40:55;26.30;51.50
63371;DHT22;49504;48.336;14.472;2023-06-14T16:44:17;26.20;51.30
63371;DHT22;49504;48.336;14.472;2023-06-14T16:47:38;26.20;51.30
63371;DHT22;49504;48.336;14.472;2023-06-14T16:50:59;26.20;51.50
63371;DHT22;49504;48.336;14.472;2023-06-14T16:54:21;26.20;51.60
63371;DHT22;49504;48.336;14.472;2023-06-14T16:57:43;26.20;51.60
63371;DHT22;49504;48.336;14.472;2023-06-14T17:01:05;26.20;51.50
63371;DHT22;49504;48.336;14.472;2023-06-14T17:04:26;26.20;51.40
63371;DHT22;49504;48.336;14.472;2023-06-14T17:07:47;26.20;51.50
63371;DHT22;49504;48.336;14.472;2023-06-14T17:11:08;26.20;51.70
63371;DHT22;49504;48.336;14.472;2023-06-14T17:14:31;26.20;51.60
63371;DHT22;49504;48.336;14.472;2023-06-14T17:17:52;26.20;51.70
63371;DHT22;49504;48.336;14.472;2023-06-14T17:21:14;26.30;51.80
63371;DHT22;49504;48.336;14.472;2023-06-14T17:24:36;26.20;51.90
63371;DHT22;49504;48.336;14.472;2023-06-14T17:27:57;26.20;52.00
63371;DHT22;49504;48.336;14.472;2023-06-14T17:31:20;26.20;51.90
63371;DHT22;49504;48.336;14.472;2023-06-14T17:34:41;26.20;51.90
63371;DHT22;49504;48.336;14.472;2023-06-14T17:38:02;26.20;51.90
63371;DHT22;49504;48.336;14.472;2023-06-14T17:41:23;26.20;51.90
63371;DHT22;49504;48.336;14.472;2023-06-14T17:44:44;26.20;52.00
63371;DHT22;49504;48.336;14.472;2023-06-14T17:48:10;26.20;52.00
63371;DHT22;49504;48.336;14.472;2023-06-14T17:51:31;26.20;52.00
63371;DHT22;49504;48.336;14.472;2023-06-14T17:55:35;26.20;51.30
63371;DHT22;49504;48.336;14.472;2023-06-14T17:58:58;26.10;51.90
63371;DHT22;49504;48.336;14.472;2023-06-14T18:02:19;26.20;52.00
63371;DHT22;49504;48.336;14.472;2023-06-14T18:05:49;26.20;52.00
63371;DHT22;49504;48.336;14.472;2023-06-14T18:09:10;26.20;52.00
63371;DHT22;49504;48.336;14.472;2023-06-14T18:12:32;26.10;52.00
63371;DHT22;49504;48.336;14.472;2023-06-14T18:15:54;26.10;52.00
63371;DHT22;49504;48.336;14.472;2023-06-14T18:19:16;26.10;52.10
63371;DHT22;49504;48.336;14.472;2023-06-14T18:22:37;26.10;52.10
63371;DHT22;49504;48.336;14.472;2023-06-14T18:25:58;26.10;52.10
63371;DHT22;49504;48.336;14.472;2023-06-14T18:29:21;26.10;52.10
63371;DHT22;49504;48.336;14.472;2023-06-14T18:32:42;26.10;52.00
63371;DHT22;49504;48.336;14.472;2023-06-14T18:36:04;26.10;52.00
63371;DHT22;49504;48.336;14.472;2023-06-14T18:39:25;26.10;52.00
63371;DHT22;49504;48.336;14.472;2023-06-14T18:42:47;26.10;52.00
63371;DHT22;49504;48.336;14.472;2023-06-14T18:46:10;26.10;52.00
63371;DHT22;49504;48.336;14.472;2023-06-14T18:49:31;26.10;52.10
63371;DHT22;49504;48.336;14.472;2023-06-14T18:52:53;26.10;52.10
63371;DHT22;49504;48.336;14.472;2023-06-14T18:56:14;26.10;52.10
63371;DHT22;49504;48.336;14.472;2023-06-14T18:59:35;26.00;52.10
63371;DHT22;49504;48.336;14.472;2023-06-14T19:02:57;26.10;52.10
63371;DHT22;49504;48.336;14.472;2023-06-14T19:06:19;26.10;52.20
63371;DHT22;49504;48.336;14.472;2023-06-14T19:09:40;26.00;52.20
63371;DHT22;49504;48.336;14.472;2023-06-14T19:13:01;26.00;52.10
63371;DHT22;49504;48.336;14.472;2023-06-14T19:16:23;26.10;52.30
63371;DHT22;49504;48.336;14.472;2023-06-14T19:19:45;26.10;52.30
63371;DHT22;49504;48.336;14.472;2023-06-14T19:23:06;26.10;52.20
63371;DHT22;49504;48.336;14.472;2023-06-14T19:26:27;26.10;52.30
63371;DHT22;49504;48.336;14.472;2023-06-14T19:29:48;26.00;52.30
63371;DHT22;49504;48.336;14.472;2023-06-14T19:33:10;26.10;52.40
63371;DHT22;49504;48.336;14.472;2023-06-14T19:36:32;26.10;52.50
63371;DHT22;49504;48.336;14.472;2023-06-14T19:39:53;26.10;52.50
63371;DHT22;49504;48.336;14.472;2023-06-14T19:43:14;26.00;52.40
63371;DHT22;49504;48.336;14.472;2023-06-14T19:46:35;26.00;52.50
63371;DHT22;49504;48.336;14.472;2023-06-14T19:49:57;26.00;52.50
63371;DHT22;49504;48.336;14.472;2023-06-14T19:53:19;26.00;52.50
63371;DHT22;49504;48.336;14.472;2023-06-14T19:56:40;26.00;52.60
63371;DHT22;49504;48.336;14.472;2023-06-14T20:00:01;26.00;52.50
63371;DHT22;49504;48.336;14.472;2023-06-14T20:03:28;26.00;52.50
63371;DHT22;49504;48.336;14.472;2023-06-14T20:06:50;26.00;52.40
63371;DHT22;49504;48.336;14.472;2023-06-14T20:10:12;26.00;53.20
63371;DHT22;49504;48.336;14.472;2023-06-14T20:13:34;26.00;52.50
63371;DHT22;49504;48.336;14.472;2023-06-14T20:16:56;26.00;52.40
63371;DHT22;49504;48.336;14.472;2023-06-14T20:20:19;26.00;52.50
63371;DHT22;49504;48.336;14.472;2023-06-14T20:24:46;26.00;51.80
63371;DHT22;49504;48.336;14.472;2023-06-14T20:28:08;26.00;52.50
63371;DHT22;49504;48.336;14.472;2023-06-14T20:31:30;26.00;52.60
63371;DHT22;49504;48.336;14.472;2023-06-14T20:34:51;26.00;52.60
63371;DHT22;49504;48.336;14.472;2023-06-14T20:38:13;26.00;52.50
63371;DHT22;49504;48.336;14.472;2023-06-14T20:41:36;26.00;52.50
63371;DHT22;49504;48.336;14.472;2023-06-14T20:44:57;26.00;52.40
63371;DHT22;49504;48.336;14.472;2023-06-14T20:48:18;26.00;52.30
63371;DHT22;49504;48.336;14.472;2023-06-14T20:51:40;26.00;52.40
63371;DHT22;49504;48.336;14.472;2023-06-14T20:56:51;26.00;51.80
63371;DHT22;49504;48.336;14.472;2023-06-14T21:00:13;26.00;52.40
63371;DHT22;49504;48.336;14.472;2023-06-14T21:03:35;26.00;52.40
63371;DHT22;49504;48.336;14.472;2023-06-14T21:06:56;26.00;52.40
63371;DHT22;49504;48.336;14.472;2023-06-14T21:10:17;26.00;52.40